createdAt,value
2022-12-05T00:00:40.761Z,98.55
2022-12-05T00:05:48.797Z,98.60
2022-12-05T00:10:54.641Z,98.30
2022-12-05T00:16:00.586Z,98.32
2022-12-05T00:21:07.335Z,98.60
2022-12-05T00:26:14.000Z,98.58
2022-12-05T00:31:22.856Z,98.67
2022-12-05T00:36:31.233Z,98.79
2022-12-05T00:41:37.553Z,98.62
2022-12-05T00:46:43.204Z,98.70
2022-12-05T00:51:48.905Z,98.77
2022-12-05T00:56:56.412Z,98.68
2022-12-05T01:02:02.183Z,98.54
2022-12-05T01:07:08.072Z,98.45
2022-12-05T01:12:14.128Z,98.50
2022-12-05T01:17:19.976Z,98.28
2022-12-05T01:22:25.562Z,97.98
2022-12-05T01:27:31.361Z,97.90
2022-12-05T01:32:37.222Z,98.07
2022-12-05T01:37:42.945Z,98.05
2022-12-05T01:42:48.798Z,97.63
2022-12-05T01:47:55.690Z,97.76
2022-12-05T01:53:01.797Z,97.87
2022-12-05T01:58:10.066Z,97.82
2022-12-05T02:03:23.368Z,97.82
2022-12-05T02:08:30.460Z,97.85
2022-12-05T02:13:49.624Z,97.89
2022-12-05T02:19:10.100Z,97.96
2022-12-05T02:24:34.936Z,97.75
2022-12-05T02:30:04.106Z,97.58
2022-12-05T02:35:18.410Z,97.58
2022-12-05T02:40:29.306Z,97.68
2022-12-05T02:45:38.601Z,97.62
2022-12-05T02:50:47.532Z,97.71
2022-12-05T02:55:54.719Z,97.68
2022-12-05T03:01:00.839Z,97.63
2022-12-05T03:06:13.298Z,97.62
2022-12-05T03:11:20.099Z,97.70
2022-12-05T03:16:33.430Z,97.75
2022-12-05T03:21:47.085Z,97.63
2022-12-05T03:27:02.285Z,97.57
2022-12-05T03:32:17.478Z,97.67
2022-12-05T03:37:30.940Z,97.74
2022-12-05T03:42:40.549Z,97.65
2022-12-05T03:47:53.069Z,97.73
2022-12-05T03:53:20.650Z,97.89
2022-12-05T03:58:35.695Z,97.81
2022-12-05T04:03:47.526Z,97.73
2022-12-05T04:08:58.493Z,97.63
2022-12-05T04:14:08.972Z,97.40
2022-12-05T04:19:22.712Z,97.46
2022-12-05T04:24:50.432Z,97.45
2022-12-05T04:30:05.055Z,97.39
2022-12-05T04:35:17.617Z,97.07
2022-12-05T04:40:32.037Z,97.05
2022-12-05T04:45:41.693Z,97.17
2022-12-05T04:50:51.182Z,97.16
2022-12-05T04:56:00.334Z,96.93
2022-12-05T05:01:11.617Z,96.86
2022-12-05T05:06:18.817Z,96.91
2022-12-05T05:11:27.099Z,96.89
2022-12-05T05:16:35.459Z,96.98
2022-12-05T05:21:42.505Z,96.95
2022-12-05T05:26:52.479Z,96.93
2022-12-05T05:32:01.546Z,96.96
2022-12-05T05:37:07.252Z,96.87
2022-12-05T05:42:13.005Z,96.45
2022-12-05T05:47:18.909Z,96.28
2022-12-05T05:52:24.717Z,96.30
2022-12-05T05:57:30.425Z,96.30
2022-12-05T06:02:37.491Z,96.27
2022-12-05T06:07:43.765Z,96.20
2022-12-05T06:12:49.634Z,96.28
2022-12-05T06:17:56.341Z,96.36
2022-12-05T06:23:02.218Z,96.43
2022-12-05T06:28:08.033Z,96.21
2022-12-05T06:33:14.667Z,96.13
2022-12-05T06:38:20.840Z,96.26
2022-12-05T06:43:26.445Z,96.44
2022-12-05T06:48:32.163Z,96.42
2022-12-05T06:53:37.975Z,96.28
2022-12-05T06:58:44.453Z,96.29
2022-12-05T07:03:51.229Z,96.45
2022-12-05T07:08:56.845Z,96.32
2022-12-05T07:14:10.259Z,96.36
2022-12-05T07:19:20.850Z,96.26
2022-12-05T07:24:27.448Z,96.18
2022-12-05T07:29:33.484Z,96.13
2022-12-05T07:34:39.264Z,96.09
2022-12-05T07:39:45.165Z,96.00
2022-12-05T07:44:51.190Z,96.02
2022-12-05T07:49:57.072Z,96.19
2022-12-05T07:55:03.276Z,95.97
2022-12-05T08:00:10.702Z,95.96
2022-12-05T08:05:19.219Z,95.84
2022-12-05T08:10:24.856Z,95.88
2022-12-05T08:15:30.638Z,95.71
2022-12-05T08:20:36.505Z,95.80
2022-12-05T08:25:42.136Z,95.64
2022-12-05T08:30:48.146Z,95.47
2022-12-05T08:35:54.130Z,95.69
2022-12-05T08:41:02.335Z,95.55
2022-12-05T08:46:09.238Z,95.44
2022-12-05T08:51:15.547Z,95.38
2022-12-05T08:56:26.830Z,95.30
2022-12-05T09:01:34.463Z,95.41
2022-12-05T09:06:41.661Z,95.22
2022-12-05T09:11:50.924Z,95.21
2022-12-05T09:16:56.716Z,95.25
2022-12-05T09:22:02.607Z,95.06
2022-12-05T09:27:08.384Z,94.79
2022-12-05T09:32:14.192Z,94.98
2022-12-05T09:37:37.966Z,95.02
2022-12-05T09:42:58.901Z,95.14
2022-12-05T09:48:10.520Z,95.12
2022-12-05T09:53:27.532Z,95.21
2022-12-05T09:58:42.708Z,95.14
2022-12-05T10:04:02.132Z,95.09
2022-12-05T10:09:22.749Z,95.02
2022-12-05T10:14:42.400Z,94.88
2022-12-05T10:19:52.024Z,94.70
2022-12-05T10:25:02.854Z,94.44
2022-12-05T10:30:15.888Z,94.29
2022-12-05T10:35:23.512Z,94.46
2022-12-05T10:40:34.608Z,94.42
2022-12-05T10:45:44.048Z,94.35
2022-12-05T10:50:52.462Z,94.48
2022-12-05T11:01:26.430Z,94.62
2022-12-05T11:06:33.674Z,94.59
2022-12-05T11:11:39.985Z,94.66
2022-12-05T11:16:54.182Z,94.44
2022-12-05T11:22:01.638Z,94.48
2022-12-05T11:32:38.789Z,94.49
2022-12-05T11:37:52.844Z,94.73
2022-12-05T11:43:27.156Z,94.82
2022-12-05T11:48:49.840Z,94.83
2022-12-05T11:54:56.315Z,94.76
2022-12-05T12:00:12.646Z,94.78
2022-12-05T12:05:26.162Z,94.91
2022-12-05T12:10:38.843Z,94.89
2022-12-05T12:15:59.642Z,94.89
2022-12-05T12:21:17.628Z,94.83
2022-12-05T12:26:34.728Z,94.84
2022-12-05T12:32:02.275Z,95.01
2022-12-05T12:37:21.804Z,95.15
2022-12-05T12:42:33.749Z,95.27
2022-12-05T12:47:51.907Z,95.31
2022-12-05T12:53:20.077Z,95.48
2022-12-05T12:58:42.819Z,95.31
2022-12-05T13:03:57.470Z,95.19
2022-12-05T13:09:11.829Z,95.33
2022-12-05T13:14:23.438Z,95.23
2022-12-05T13:19:37.545Z,95.10
2022-12-05T13:24:43.487Z,95.04
2022-12-05T13:29:56.025Z,95.13
2022-12-05T13:35:09.960Z,95.20
2022-12-05T13:40:48.170Z,95.04
2022-12-05T13:46:05.524Z,95.11
2022-12-05T13:51:20.704Z,95.13
2022-12-05T13:56:45.739Z,95.21
2022-12-05T14:01:56.113Z,95.16
2022-12-05T14:07:02.315Z,95.19
2022-12-05T14:12:44.614Z,95.19
2022-12-05T14:17:56.162Z,95.35
2022-12-05T14:23:44.417Z,95.33
2022-12-05T14:29:02.146Z,95.29
2022-12-05T14:34:27.528Z,95.48
2022-12-05T14:39:38.795Z,95.58
2022-12-05T14:44:49.772Z,95.76
2022-12-05T14:50:04.700Z,95.81
2022-12-05T14:55:22.134Z,95.96
2022-12-05T15:00:32.024Z,96.20
2022-12-05T15:05:39.611Z,96.40
2022-12-05T15:10:45.799Z,96.54
2022-12-05T15:16:01.342Z,96.49
2022-12-05T15:21:14.192Z,96.56
2022-12-05T15:26:46.166Z,96.47
2022-12-05T15:31:51.564Z,96.40
2022-12-05T15:37:03.751Z,96.41
2022-12-05T15:42:17.078Z,96.57
2022-12-05T15:47:25.949Z,96.53
2022-12-05T15:52:38.973Z,96.52
2022-12-05T15:57:48.997Z,96.71
2022-12-05T16:03:00.054Z,96.78
2022-12-05T16:08:07.153Z,96.76
2022-12-05T16:13:17.198Z,96.83
2022-12-05T16:18:29.426Z,96.81
2022-12-05T16:23:37.472Z,96.96
2022-12-05T16:28:56.398Z,96.96
2022-12-05T16:34:04.678Z,96.95
2022-12-05T16:39:19.422Z,96.95
2022-12-05T16:45:02.359Z,96.81
2022-12-05T16:50:25.384Z,96.87
2022-12-05T16:55:37.223Z,96.94
2022-12-05T17:00:43.172Z,96.93
2022-12-05T17:05:49.035Z,96.88
2022-12-05T17:10:55.292Z,96.89
2022-12-05T17:16:01.187Z,96.83
2022-12-05T17:21:14.651Z,96.90
2022-12-05T17:26:22.530Z,96.76
2022-12-05T17:31:28.554Z,96.75
2022-12-05T17:37:02.776Z,96.66
2022-12-05T17:42:08.620Z,96.54
2022-12-05T17:47:15.664Z,96.59
2022-12-05T17:52:22.802Z,96.56
2022-12-05T17:57:28.692Z,96.38
2022-12-05T18:02:34.404Z,96.44
2022-12-05T18:07:41.477Z,96.39
2022-12-05T18:12:48.192Z,96.60
2022-12-05T18:17:55.624Z,96.35
2022-12-05T18:23:02.844Z,96.10
2022-12-05T18:28:08.918Z,96.07
2022-12-05T18:33:15.388Z,96.02
2022-12-05T18:38:21.063Z,95.90
2022-12-05T18:43:26.928Z,95.98
2022-12-05T18:48:44.818Z,95.92
2022-12-05T18:53:56.729Z,95.89
2022-12-05T18:59:04.662Z,95.96
2022-12-05T19:04:15.246Z,95.86
2022-12-05T19:09:24.080Z,95.77
2022-12-05T19:14:33.055Z,95.59
2022-12-05T19:19:40.343Z,95.70
2022-12-05T19:24:46.059Z,95.69
2022-12-05T19:29:51.717Z,95.63
2022-12-05T19:34:57.610Z,95.64
2022-12-05T19:40:03.486Z,95.67
2022-12-05T19:45:14.912Z,95.61
2022-12-05T19:50:23.674Z,95.67
2022-12-05T19:55:29.693Z,95.75
2022-12-05T20:00:35.443Z,95.66
2022-12-05T20:05:41.061Z,95.54
2022-12-05T20:10:46.682Z,95.50
2022-12-05T20:15:52.848Z,95.56
2022-12-05T20:21:01.318Z,95.69
2022-12-05T20:26:09.406Z,95.71
2022-12-05T20:31:16.823Z,95.66
2022-12-05T20:36:24.713Z,95.59
2022-12-05T20:41:30.876Z,95.51
2022-12-05T20:46:36.960Z,95.83
2022-12-05T20:51:45.190Z,95.85
2022-12-05T20:56:51.256Z,95.87
2022-12-05T21:01:56.954Z,95.67
2022-12-05T21:07:03.120Z,95.51
2022-12-05T21:12:09.668Z,95.50
2022-12-05T21:17:15.296Z,95.53
2022-12-05T21:22:21.239Z,95.50
2022-12-05T21:27:27.155Z,95.47
2022-12-05T21:32:32.803Z,95.44
2022-12-05T21:37:39.103Z,95.42
2022-12-05T21:42:44.846Z,95.36
2022-12-05T21:47:51.281Z,95.31
2022-12-05T21:52:57.353Z,95.45
2022-12-05T21:58:02.986Z,95.38
2022-12-05T22:03:13.501Z,95.38
2022-12-05T22:08:19.547Z,95.40
2022-12-05T22:13:25.177Z,95.41
2022-12-05T22:18:31.224Z,95.39
2022-12-05T22:23:37.361Z,95.29
2022-12-05T22:28:43.511Z,95.43
2022-12-05T22:33:50.733Z,95.37
2022-12-05T22:38:56.488Z,95.50
2022-12-05T22:44:02.256Z,95.46
2022-12-05T22:49:08.260Z,95.40
2022-12-05T22:54:14.732Z,95.43
2022-12-05T22:59:20.935Z,95.34
2022-12-05T23:04:27.024Z,95.52
2022-12-05T23:09:32.832Z,95.55
2022-12-05T23:14:38.464Z,95.62
2022-12-05T23:19:44.105Z,95.64
2022-12-05T23:24:50.085Z,95.66
2022-12-05T23:29:55.747Z,95.71
2022-12-05T23:35:01.501Z,95.82
2022-12-05T23:40:08.830Z,95.81
2022-12-05T23:45:15.155Z,95.73
2022-12-05T23:50:20.993Z,95.83
2022-12-05T23:55:26.715Z,95.83
